Time;durP1;ratioP1;P1;durP2;ratioP2;P2;SDS_P1;SDS_P2;PMS_P1;PMS_P2;Temp;Humidity;BMP_temperature;BMP_pressure;BME280_temperature;BME280_humidity;BME280_pressure;Samples;Min_cycle;Max_cycle;Signal;HPM_P1;HPM_P2
2023/12/08 00:01:17;;;;;;;;;;;128.90;2252.80;;;;;;5076295;28;19913;-74
2023/12/08 00:03:43;;;;;;;;;;;128.80;2252.80;;;;;;5074852;28;19919;-74
2023/12/08 00:06:08;;;;;;;;;;;128.70;2252.80;;;;;;5064635;28;19912;-74
2023/12/08 00:08:34;;;;;;;;;;;128.80;2252.80;;;;;;5071096;28;19913;-74
2023/12/08 00:11:00;;;;;;;;;;;128.90;2252.80;;;;;;5063591;28;20032;-73
2023/12/08 00:13:26;;;;;;;;;;;128.90;2252.80;;;;;;5064274;28;20015;-74
2023/12/08 00:15:51;;;;;;;;;;;128.80;2252.80;;;;;;5070529;28;20253;-74
2023/12/08 00:18:17;;;;;;;;;;;128.90;2252.80;;;;;;5072719;28;19927;-74
2023/12/08 00:20:42;;;;;;;;;;;128.90;2252.80;;;;;;5065967;28;20003;-74
2023/12/08 00:23:08;;;;;;;;;;;128.90;2252.80;;;;;;5073930;28;19919;-74
2023/12/08 00:25:33;;;;;;;;;;;128.90;2252.80;;;;;;5086017;28;19915;-73
2023/12/08 00:27:59;;;;;;;;;;;153.70;2252.80;;;;;;5071070;28;19912;-74
2023/12/08 00:30:25;;;;;;;;;;;153.60;2252.80;;;;;;5066353;28;19978;-74
2023/12/08 00:32:51;;;;;;;;;;;153.70;2252.80;;;;;;5069446;28;19916;-74
2023/12/08 00:35:17;;;;;;;;;;;153.60;2252.80;;;;;;5067903;28;20417;-74
2023/12/08 00:37:43;;;;;;;;;;;128.90;2252.80;;;;;;5064633;28;20315;-74
2023/12/08 00:40:08;;;;;;;;;;;128.90;2252.80;;;;;;5077816;28;19939;-74
2023/12/08 00:42:34;;;;;;;;;;;128.90;2252.80;;;;;;5058831;28;19912;-74
2023/12/08 00:45:00;;;;;;;;;;;153.60;2252.80;;;;;;5066705;28;19951;-74
2023/12/08 00:47:25;;;;;;;;;;;153.60;2252.80;;;;;;5106510;27;19989;-74
2023/12/08 00:49:51;;;;;;;;;;;128.90;2252.80;;;;;;5082920;28;19923;-74
2023/12/08 00:52:17;;;;;;;;;;;128.90;2252.80;;;;;;5064713;28;19912;-74
2023/12/08 00:54:43;;;;;;;;;;;128.90;2252.80;;;;;;5075825;28;19915;-74
2023/12/08 00:57:08;;;;;;;;;;;153.70;2252.80;;;;;;5078192;28;20252;-74
2023/12/08 00:59:34;;;;;;;;;;;153.60;2252.80;;;;;;5063113;28;19920;-74
2023/12/08 01:01:59;;;;;;;;;;;153.70;2252.80;;;;;;5074531;28;19956;-74
2023/12/08 01:04:25;;;;;;;;;;;153.70;2252.80;;;;;;5071210;28;19920;-74
2023/12/08 01:06:50;;;;;;;;;;;153.70;2252.80;;;;;;5069320;28;19911;-74
2023/12/08 01:09:16;;;;;;;;;;;153.70;2252.80;;;;;;5075451;28;19916;-74
2023/12/08 01:11:42;;;;;;;;;;;153.80;2252.80;;;;;;5064341;28;19962;-74
2023/12/08 01:14:07;;;;;;;;;;;153.70;2252.80;;;;;;5068566;28;19995;-73
2023/12/08 01:16:37;;;;;;;;;;;153.70;2252.80;;;;;;5066669;28;19913;-74
2023/12/08 01:19:02;;;;;;;;;;;153.70;2252.80;;;;;;5072987;28;19924;-74
2023/12/08 01:21:28;;;;;;;;;;;128.90;2252.80;;;;;;5073701;28;19938;-74
2023/12/08 01:23:54;;;;;;;;;;;128.90;2252.80;;;;;;5073503;28;19931;-74
2023/12/08 01:26:20;;;;;;;;;;;128.80;2252.80;;;;;;5073711;28;20003;-74
2023/12/08 01:28:45;;;;;;;;;;;128.80;2252.80;;;;;;5073718;28;19916;-74
2023/12/08 01:31:12;;;;;;;;;;;128.70;2252.80;;;;;;5073624;28;19909;-74
2023/12/08 01:33:37;;;;;;;;;;;128.80;2252.80;;;;;;5073318;28;19912;-74
2023/12/08 01:36:03;;;;;;;;;;;128.70;2252.80;;;;;;5073393;28;19914;-74
2023/12/08 01:38:30;;;;;;;;;;;128.50;2252.80;;;;;;5073129;28;19916;-73
2023/12/08 01:40:55;;;;;;;;;;;128.60;2252.80;;;;;;5073468;28;19908;-74
2023/12/08 01:43:21;;;;;;;;;;;128.60;2252.80;;;;;;5073067;28;19908;-74
2023/12/08 01:45:46;;;;;;;;;;;128.70;2252.80;;;;;;5073388;28;19947;-74
2023/12/08 01:48:12;;;;;;;;;;;128.50;2252.80;;;;;;5072786;28;20380;-74
2023/12/08 01:50:38;;;;;;;;;;;128.50;2252.80;;;;;;5073935;28;19912;-74
2023/12/08 01:53:05;;;;;;;;;;;128.50;2252.80;;;;;;5077096;28;19962;-74
2023/12/08 01:55:31;;;;;;;;;;;128.40;2252.80;;;;;;5077177;28;20283;-74
2023/12/08 01:57:58;;;;;;;;;;;128.40;2252.80;;;;;;5077117;28;20275;-74
2023/12/08 02:00:23;;;;;;;;;;;128.40;2252.80;;;;;;5077225;28;19916;-74
2023/12/08 02:02:49;;;;;;;;;;;128.40;2252.80;;;;;;5077256;28;19908;-74
2023/12/08 02:05:16;;;;;;;;;;;128.50;2252.80;;;;;;5077039;28;19915;-74
2023/12/08 02:07:42;;;;;;;;;;;128.40;2252.80;;;;;;5075781;28;19912;-74
2023/12/08 02:10:08;;;;;;;;;;;128.40;2252.80;;;;;;5077108;28;19912;-74
2023/12/08 02:12:33;;;;;;;;;;;128.50;2252.80;;;;;;5076914;28;19961;-74
2023/12/08 02:14:59;;;;;;;;;;;128.40;2252.80;;;;;;5076667;28;19915;-74
2023/12/08 02:17:28;;;;;;;;;;;128.40;2252.80;;;;;;5085112;28;19920;-74
2023/12/08 02:19:54;;;;;;;;;;;128.20;2252.80;;;;;;5096647;28;19920;-74
2023/12/08 02:22:21;;;;;;;;;;;128.20;2252.80;;;;;;5097057;28;20387;-74
2023/12/08 02:24:47;;;;;;;;;;;128.30;2252.80;;;;;;5096644;28;19915;-74
2023/12/08 02:27:13;;;;;;;;;;;128.30;2252.80;;;;;;5096723;28;19908;-74
2023/12/08 02:29:38;;;;;;;;;;;128.50;2252.80;;;;;;5096505;28;20275;-74
2023/12/08 02:32:04;;;;;;;;;;;128.50;2252.80;;;;;;5096913;28;19908;-74
2023/12/08 02:34:31;;;;;;;;;;;128.50;2252.80;;;;;;5096521;28;19908;-74
2023/12/08 02:36:58;;;;;;;;;;;128.50;2252.80;;;;;;5096920;28;19915;-73
2023/12/08 02:39:24;;;;;;;;;;;128.30;2252.80;;;;;;5096597;28;19956;-74
2023/12/08 02:41:50;;;;;;;;;;;128.40;2252.80;;;;;;5096442;28;19908;-74
2023/12/08 02:44:16;;;;;;;;;;;128.40;2252.80;;;;;;5096492;28;19908;-74
2023/12/08 02:46:42;;;;;;;;;;;128.50;2252.80;;;;;;5096411;28;19919;-74
2023/12/08 02:49:08;;;;;;;;;;;128.40;2252.80;;;;;;5096256;28;19964;-74
2023/12/08 02:51:34;;;;;;;;;;;128.50;2252.80;;;;;;5096555;28;20003;-74
2023/12/08 02:53:59;;;;;;;;;;;128.30;2252.80;;;;;;5096212;28;19930;-74
2023/12/08 02:56:25;;;;;;;;;;;128.30;2252.80;;;;;;5096647;28;19909;-74
2023/12/08 02:58:50;;;;;;;;;;;128.30;2252.80;;;;;;5095987;28;19994;-73
2023/12/08 03:01:16;;;;;;;;;;;128.30;2252.80;;;;;;5096046;28;19908;-74
2023/12/08 03:03:42;;;;;;;;;;;128.40;2252.80;;;;;;5094889;28;20371;-74
2023/12/08 03:06:07;;;;;;;;;;;128.30;2252.80;;;;;;5096204;28;19931;-74
2023/12/08 03:08:33;;;;;;;;;;;128.40;2252.80;;;;;;5095544;28;19908;-74
2023/12/08 03:10:58;;;;;;;;;;;128.30;2252.80;;;;;;5096196;28;20409;-74
2023/12/08 03:13:24;;;;;;;;;;;128.30;2252.80;;;;;;5095811;28;19908;-74
2023/12/08 03:15:50;;;;;;;;;;;128.40;2252.80;;;;;;5096167;28;19908;-74
2023/12/08 03:18:15;;;;;;;;;;;128.40;2252.80;;;;;;5095255;28;20359;-74
2023/12/08 03:20:41;;;;;;;;;;;128.40;2252.80;;;;;;5095986;28;19944;-74
2023/12/08 03:23:06;;;;;;;;;;;128.60;2252.80;;;;;;5095550;28;20241;-74
2023/12/08 03:25:32;;;;;;;;;;;128.60;2252.80;;;;;;5095625;28;20378;-74
2023/12/08 03:27:57;;;;;;;;;;;128.70;2252.80;;;;;;5095678;28;19915;-74
2023/12/08 03:30:23;;;;;;;;;;;128.60;2252.80;;;;;;5077601;28;20287;-74
2023/12/08 03:32:49;;;;;;;;;;;128.70;2252.80;;;;;;5095268;28;19996;-74
2023/12/08 03:35:14;;;;;;;;;;;128.70;2252.80;;;;;;5095223;28;20359;-74
2023/12/08 03:37:40;;;;;;;;;;;128.40;2252.80;;;;;;5095491;28;19968;-73
2023/12/08 03:40:06;;;;;;;;;;;128.30;2252.80;;;;;;5095310;28;19920;-74
2023/12/08 03:42:36;;;;;;;;;;;128.40;2252.80;;;;;;5094917;28;20011;-74
2023/12/08 03:45:05;;;;;;;;;;;128.50;2252.80;;;;;;5095347;28;19908;-74
2023/12/08 03:47:30;;;;;;;;;;;128.60;2252.80;;;;;;5077112;28;20318;-75
2023/12/08 03:49:56;;;;;;;;;;;128.70;2252.80;;;;;;5094905;28;19965;-74
2023/12/08 03:52:22;;;;;;;;;;;128.80;2252.80;;;;;;5095174;28;19911;-74
2023/12/08 03:54:47;;;;;;;;;;;128.90;2252.80;;;;;;5077208;28;20279;-74
2023/12/08 03:57:13;;;;;;;;;;;128.80;2252.80;;;;;;5095221;28;19958;-74
2023/12/08 03:59:41;;;;;;;;;;;128.80;2252.80;;;;;;5095324;28;19916;-74
2023/12/08 04:02:07;;;;;;;;;;;128.90;2252.80;;;;;;5094686;28;20271;-74
2023/12/08 04:04:32;;;;;;;;;;;128.80;2252.80;;;;;;5094793;28;19912;-74
2023/12/08 04:06:58;;;;;;;;;;;128.90;2252.80;;;;;;5094611;28;19915;-74
2023/12/08 04:09:23;;;;;;;;;;;128.90;2252.80;;;;;;5094853;28;20355;-74
2023/12/08 04:11:49;;;;;;;;;;;153.60;2252.80;;;;;;5094553;28;20007;-74
2023/12/08 04:14:14;;;;;;;;;;;128.90;2252.80;;;;;;5094847;28;19961;-74
2023/12/08 04:16:40;;;;;;;;;;;153.60;2252.80;;;;;;5094303;28;19912;-74
2023/12/08 04:19:06;;;;;;;;;;;153.60;2252.80;;;;;;5076232;28;19920;-74
2023/12/08 04:21:31;;;;;;;;;;;153.70;2252.80;;;;;;5094492;28;19915;-74
2023/12/08 04:23:57;;;;;;;;;;;153.70;2252.80;;;;;;5094861;28;19909;-73
2023/12/08 04:26:24;;;;;;;;;;;128.80;2252.80;;;;;;5094140;28;19908;-74
2023/12/08 04:28:53;;;;;;;;;;;128.70;2252.80;;;;;;5094614;28;20368;-74
2023/12/08 04:31:19;;;;;;;;;;;128.60;2252.80;;;;;;5094275;28;19908;-74
2023/12/08 04:33:46;;;;;;;;;;;128.60;2252.80;;;;;;5094273;28;19915;-74
2023/12/08 04:36:11;;;;;;;;;;;128.50;2252.80;;;;;;5094036;28;19909;-74
2023/12/08 04:38:37;;;;;;;;;;;128.40;2252.80;;;;;;5094191;28;19992;-75
2023/12/08 04:41:02;;;;;;;;;;;128.60;2252.80;;;;;;5094104;28;19919;-74
2023/12/08 04:43:28;;;;;;;;;;;128.60;2252.80;;;;;;5094342;28;19908;-74
2023/12/08 04:45:54;;;;;;;;;;;128.70;2252.80;;;;;;5094393;28;19911;-74
2023/12/08 04:48:19;;;;;;;;;;;128.80;2252.80;;;;;;5093944;28;19958;-73
2023/12/08 04:50:45;;;;;;;;;;;128.90;2252.80;;;;;;5093478;28;19944;-74
2023/12/08 04:53:11;;;;;;;;;;;153.60;2252.80;;;;;;5093892;28;20281;-74
2023/12/08 04:55:37;;;;;;;;;;;153.60;2252.80;;;;;;5094069;28;19914;-74
2023/12/08 04:58:03;;;;;;;;;;;153.70;2252.80;;;;;;5093820;28;20007;-74
2023/12/08 05:00:28;;;;;;;;;;;153.70;2252.80;;;;;;5094047;28;19909;-74
2023/12/08 05:02:57;;;;;;;;;;;153.70;2252.80;;;;;;5094163;28;19908;-74
2023/12/08 05:05:23;;;;;;;;;;;128.90;2252.80;;;;;;5093561;28;19912;-74
2023/12/08 05:07:49;;;;;;;;;;;128.90;2252.80;;;;;;5093821;28;19908;-74
2023/12/08 05:10:15;;;;;;;;;;;128.90;2252.80;;;;;;5093887;28;19915;-74
2023/12/08 05:12:40;;;;;;;;;;;128.90;2252.80;;;;;;5093672;28;19953;-74
2023/12/08 05:15:06;;;;;;;;;;;128.90;2252.80;;;;;;5093760;28;19960;-74
2023/12/08 05:17:32;;;;;;;;;;;154.10;2252.80;;;;;;5093721;28;19920;-74
2023/12/08 05:19:57;;;;;;;;;;;153.60;2252.80;;;;;;5093157;28;19920;-74
2023/12/08 05:22:23;;;;;;;;;;;128.90;2252.80;;;;;;5075021;28;20292;-74
2023/12/08 05:24:48;;;;;;;;;;;128.40;2252.80;;;;;;5060003;28;19913;-74
2023/12/08 05:27:14;;;;;;;;;;;128.40;2252.80;;;;;;5061948;28;19912;-74
2023/12/08 05:29:40;;;;;;;;;;;128.30;2252.80;;;;;;5059690;28;19917;-74
2023/12/08 05:32:06;;;;;;;;;;;128.20;2252.80;;;;;;5056822;28;20335;-74
2023/12/08 05:34:31;;;;;;;;;;;128.00;2252.80;;;;;;5065236;28;19913;-74
2023/12/08 05:36:57;;;;;;;;;;;128.10;2252.80;;;;;;5057903;28;19995;-74
2023/12/08 05:39:22;;;;;;;;;;;128.20;2252.80;;;;;;5061995;28;19927;-74
2023/12/08 05:41:48;;;;;;;;;;;128.00;2252.80;;;;;;5066883;28;19948;-75
2023/12/08 05:44:15;;;;;;;;;;;128.20;2252.80;;;;;;5062336;28;19979;-74
2023/12/08 05:46:40;;;;;;;;;;;128.20;2252.80;;;;;;5057837;28;19920;-73
2023/12/08 05:49:06;;;;;;;;;;;128.10;2252.80;;;;;;5063633;28;19924;-74
2023/12/08 05:51:32;;;;;;;;;;;128.10;2252.80;;;;;;5068058;28;19917;-74
2023/12/08 05:53:57;;;;;;;;;;;128.20;2252.80;;;;;;5044196;28;19913;-74
2023/12/08 05:56:23;;;;;;;;;;;128.30;2252.80;;;;;;5075607;28;19966;-74
2023/12/08 05:58:48;;;;;;;;;;;128.10;2252.80;;;;;;5064367;28;19924;-74
2023/12/08 06:01:14;;;;;;;;;;;128.00;2252.80;;;;;;5060064;28;19916;-74
2023/12/08 06:03:40;;;;;;;;;;;128.00;2252.80;;;;;;5066757;28;19912;-74
2023/12/08 06:06:05;;;;;;;;;;;103.20;2227.20;;;;;;5060881;28;19954;-74
2023/12/08 06:08:31;;;;;;;;;;;128.00;2252.80;;;;;;5058097;28;19912;-74
2023/12/08 06:10:56;;;;;;;;;;;128.20;2252.80;;;;;;5058450;28;19915;-74
2023/12/08 06:13:22;;;;;;;;;;;128.30;2252.80;;;;;;5062575;28;19923;-74
2023/12/08 06:15:48;;;;;;;;;;;128.30;2252.80;;;;;;5056360;28;19944;-74
2023/12/08 06:18:13;;;;;;;;;;;128.50;2252.80;;;;;;5058514;28;19927;-74
2023/12/08 06:20:39;;;;;;;;;;;128.50;2252.80;;;;;;5066059;28;19917;-74
2023/12/08 06:23:04;;;;;;;;;;;128.50;2252.80;;;;;;5094687;28;20000;-74
2023/12/08 06:25:30;;;;;;;;;;;128.50;2252.80;;;;;;5066741;28;19913;-74
2023/12/08 06:27:55;;;;;;;;;;;128.60;2252.80;;;;;;5069140;28;19924;-74
2023/12/08 06:30:22;;;;;;;;;;;128.60;2252.80;;;;;;5077128;28;19988;-74
2023/12/08 06:32:47;;;;;;;;;;;128.60;2252.80;;;;;;5067179;28;19920;-74
2023/12/08 06:35:13;;;;;;;;;;;128.50;2252.80;;;;;;5069620;28;20291;-74
2023/12/08 06:37:38;;;;;;;;;;;128.50;2252.80;;;;;;5078631;28;19913;-74
2023/12/08 06:40:04;;;;;;;;;;;128.50;2252.80;;;;;;5077937;28;19921;-74
2023/12/08 06:42:30;;;;;;;;;;;128.40;2252.80;;;;;;5085812;28;19912;-74
2023/12/08 06:44:56;;;;;;;;;;;128.30;2252.80;;;;;;5106192;27;19909;-74
2023/12/08 06:47:22;;;;;;;;;;;128.30;2252.80;;;;;;5066854;28;19913;-74
2023/12/08 06:49:47;;;;;;;;;;;128.20;2252.80;;;;;;5077808;28;19917;-75
2023/12/08 06:52:13;;;;;;;;;;;128.20;2252.80;;;;;;5070982;28;19913;-74
2023/12/08 06:54:38;;;;;;;;;;;128.00;2252.80;;;;;;5073896;28;19909;-74
2023/12/08 06:57:04;;;;;;;;;;;128.00;2252.80;;;;;;5076150;28;20099;-74
2023/12/08 06:59:30;;;;;;;;;;;128.20;2252.80;;;;;;5066133;28;19920;-75
2023/12/08 07:01:55;;;;;;;;;;;128.30;2252.80;;;;;;5074961;28;19959;-75
2023/12/08 07:04:21;;;;;;;;;;;128.40;2252.80;;;;;;5073225;28;19916;-75
2023/12/08 07:06:46;;;;;;;;;;;128.60;2252.80;;;;;;5073501;28;20003;-73
2023/12/08 07:09:12;;;;;;;;;;;128.70;2252.80;;;;;;5063473;28;19917;-76
2023/12/08 07:11:38;;;;;;;;;;;128.70;2252.80;;;;;;5103841;27;19920;-77
2023/12/08 07:14:03;;;;;;;;;;;128.60;2252.80;;;;;;5069165;28;20008;-76
2023/12/08 07:16:29;;;;;;;;;;;128.70;2252.80;;;;;;5114142;27;19939;-79
2023/12/08 07:18:54;;;;;;;;;;;128.50;2252.80;;;;;;5072320;28;19928;-76
2023/12/08 07:21:20;;;;;;;;;;;128.40;2252.80;;;;;;5069775;28;20319;-76
2023/12/08 07:23:45;;;;;;;;;;;128.40;2252.80;;;;;;5072546;28;19919;-75
2023/12/08 07:26:11;;;;;;;;;;;128.40;2252.80;;;;;;5070690;28;20356;-76
2023/12/08 07:28:37;;;;;;;;;;;128.40;2252.80;;;;;;5076850;28;19913;-74
2023/12/08 07:31:03;;;;;;;;;;;128.40;2252.80;;;;;;5077152;28;20365;-75
2023/12/08 07:33:28;;;;;;;;;;;128.70;2252.80;;;;;;5078192;28;19962;-76
2023/12/08 07:35:54;;;;;;;;;;;128.50;2252.80;;;;;;5107683;27;19912;-76
2023/12/08 07:38:20;;;;;;;;;;;128.60;2252.80;;;;;;5074442;28;19913;-76
2023/12/08 07:40:46;;;;;;;;;;;128.50;2252.80;;;;;;5101089;28;20648;-74
2023/12/08 07:43:11;;;;;;;;;;;128.50;2252.80;;;;;;5072820;28;19915;-75
2023/12/08 07:45:37;;;;;;;;;;;128.70;2252.80;;;;;;5108375;27;20020;-75
2023/12/08 07:48:03;;;;;;;;;;;128.70;2252.80;;;;;;5075730;28;20264;-76
2023/12/08 07:50:29;;;;;;;;;;;128.70;2252.80;;;;;;5104990;27;19913;-75
2023/12/08 07:52:54;;;;;;;;;;;128.50;2252.80;;;;;;5067383;28;20429;-77
2023/12/08 07:55:20;;;;;;;;;;;128.60;2252.80;;;;;;5069899;28;19920;-75
2023/12/08 07:57:46;;;;;;;;;;;128.60;2252.80;;;;;;5071008;28;20362;-75
2023/12/08 08:00:12;;;;;;;;;;;128.50;2252.80;;;;;;5080164;28;19922;-75
2023/12/08 08:02:38;;;;;;;;;;;128.80;2252.80;;;;;;5067513;28;19991;-75
2023/12/08 08:05:04;;;;;;;;;;;128.70;2252.80;;;;;;5057380;28;19913;-76
2023/12/08 08:07:30;;;;;;;;;;;128.70;2252.80;;;;;;5069442;28;19913;-75
2023/12/08 08:09:56;;;;;;;;;;;128.50;2252.80;;;;;;5069583;28;19987;-76
2023/12/08 08:12:21;;;;;;;;;;;128.70;2252.80;;;;;;5075121;28;19919;-76
2023/12/08 08:14:47;;;;;;;;;;;128.60;2252.80;;;;;;5064330;28;19916;-75
2023/12/08 08:17:13;;;;;;;;;;;128.60;2252.80;;;;;;5067451;28;19932;-74
2023/12/08 08:19:38;;;;;;;;;;;128.60;2252.80;;;;;;5110588;27;19929;-75
2023/12/08 08:22:04;;;;;;;;;;;128.90;2252.80;;;;;;5073809;28;19912;-75
2023/12/08 08:24:30;;;;;;;;;;;128.70;2252.80;;;;;;5107886;27;20260;-75
2023/12/08 08:26:55;;;;;;;;;;;128.80;2252.80;;;;;;5068006;28;19955;-75
2023/12/08 08:29:21;;;;;;;;;;;128.90;2252.80;;;;;;5105756;27;20027;-74
2023/12/08 08:31:46;;;;;;;;;;;153.60;2252.80;;;;;;5071424;28;19958;-75
2023/12/08 08:34:12;;;;;;;;;;;128.90;2252.80;;;;;;5068565;28;19920;-74
2023/12/08 08:36:38;;;;;;;;;;;128.80;2252.80;;;;;;5067871;28;19916;-74
2023/12/08 08:39:03;;;;;;;;;;;128.90;2252.80;;;;;;5074939;28;19927;-75
2023/12/08 08:41:29;;;;;;;;;;;153.70;2252.80;;;;;;5077054;28;19913;-74
2023/12/08 08:43:55;;;;;;;;;;;153.70;2252.80;;;;;;5099703;28;19920;-74
2023/12/08 08:46:20;;;;;;;;;;;153.60;2252.80;;;;;;5075546;28;19936;-73
2023/12/08 08:48:46;;;;;;;;;;;153.80;2252.80;;;;;;5077289;28;19923;-74
2023/12/08 08:51:12;;;;;;;;;;;153.80;2252.80;;;;;;5075781;28;19998;-76
2023/12/08 08:53:37;;;;;;;;;;;153.70;2252.80;;;;;;5067769;28;20253;-74
2023/12/08 08:56:03;;;;;;;;;;;128.70;2252.80;;;;;;5069194;28;20445;-74
2023/12/08 08:58:29;;;;;;;;;;;128.90;2252.80;;;;;;5068284;28;19913;-74
2023/12/08 09:00:54;;;;;;;;;;;128.90;2252.80;;;;;;5075097;28;20279;-74
2023/12/08 09:03:20;;;;;;;;;;;128.80;2252.80;;;;;;5063474;28;20383;-75
2023/12/08 09:05:46;;;;;;;;;;;128.80;2252.80;;;;;;5074366;28;19908;-75
2023/12/08 09:08:11;;;;;;;;;;;128.90;2252.80;;;;;;5075854;28;20003;-74
2023/12/08 09:10:38;;;;;;;;;;;153.60;2252.80;;;;;;5070297;28;19912;-74
2023/12/08 09:13:03;;;;;;;;;;;153.70;2252.80;;;;;;5075473;28;19913;-75
2023/12/08 09:15:29;;;;;;;;;;;153.80;2252.80;;;;;;5074897;28;19930;-74
2023/12/08 09:17:55;;;;;;;;;;;154.00;2252.80;;;;;;5099762;28;20402;-75
2023/12/08 09:20:23;;;;;;;;;;;154.10;2252.80;;;;;;5066787;28;20211;-75
2023/12/08 09:22:50;;;;;;;;;;;153.80;2252.80;;;;;;5074007;28;19970;-74
2023/12/08 09:25:17;;;;;;;;;;;154.00;2252.80;;;;;;5064025;28;19913;-73
2023/12/08 09:27:43;;;;;;;;;;;154.00;2252.80;;;;;;5079150;28;19938;-73
2023/12/08 09:30:09;;;;;;;;;;;153.70;2252.80;;;;;;5075283;28;20380;-73
2023/12/08 09:32:35;;;;;;;;;;;154.30;2252.80;;;;;;5075521;28;19912;-74
2023/12/08 09:35:00;;;;;;;;;;;153.90;2252.80;;;;;;5067598;28;19955;-74
2023/12/08 09:37:26;;;;;;;;;;;153.90;2252.80;;;;;;5070578;28;20321;-75
2023/12/08 09:39:52;;;;;;;;;;;154.00;2252.80;;;;;;5105341;28;19924;-74
2023/12/08 09:42:27;;;;;;;;;;;153.90;2252.80;;;;;;5069203;28;19912;-74
2023/12/08 09:44:53;;;;;;;;;;;153.70;2252.80;;;;;;5099395;28;19920;-74
2023/12/08 09:47:20;;;;;;;;;;;128.90;2252.80;;;;;;5070716;28;19913;-74
2023/12/08 09:49:46;;;;;;;;;;;153.70;2252.80;;;;;;5069665;28;19924;-74
2023/12/08 09:52:15;;;;;;;;;;;153.70;2252.80;;;;;;5065479;28;20395;-74
2023/12/08 09:54:41;;;;;;;;;;;153.80;2252.80;;;;;;5069016;28;20279;-74
2023/12/08 09:57:09;;;;;;;;;;;153.90;2252.80;;;;;;5074184;28;19908;-75
2023/12/08 09:59:36;;;;;;;;;;;153.60;2252.80;;;;;;5066542;28;20276;-74
2023/12/08 10:02:02;;;;;;;;;;;153.80;2252.80;;;;;;5074775;28;19919;-76
2023/12/08 10:04:28;;;;;;;;;;;154.00;2252.80;;;;;;5069855;28;19912;-74
2023/12/08 10:06:58;;;;;;;;;;;153.90;2252.80;;;;;;5069275;28;19916;-75
2023/12/08 10:09:24;;;;;;;;;;;154.10;2252.80;;;;;;5094301;28;19912;-73
2023/12/08 10:11:50;;;;;;;;;;;154.00;2252.80;;;;;;5077753;28;19958;-74
2023/12/08 10:14:17;;;;;;;;;;;154.10;2252.80;;;;;;5072746;28;19916;-73
2023/12/08 10:16:46;;;;;;;;;;;153.70;2252.80;;;;;;5076590;28;19963;-74
2023/12/08 10:19:12;;;;;;;;;;;153.70;2252.80;;;;;;5073361;28;19924;-76
2023/12/08 10:21:38;;;;;;;;;;;128.80;2252.80;;;;;;5075991;28;19959;-75
2023/12/08 10:24:04;;;;;;;;;;;128.80;2252.80;;;;;;5061845;28;20399;-75
2023/12/08 10:26:33;;;;;;;;;;;128.70;2252.80;;;;;;5070894;28;19944;-76
2023/12/08 10:28:59;;;;;;;;;;;128.80;2252.80;;;;;;5068795;28;19909;-74
2023/12/08 10:31:25;;;;;;;;;;;153.70;2252.80;;;;;;5080861;28;19919;-76
2023/12/08 10:33:51;;;;;;;;;;;153.80;2252.80;;;;;;5075229;28;19975;-76
2023/12/08 10:36:17;;;;;;;;;;;153.90;2252.80;;;;;;5074574;28;20376;-74
2023/12/08 10:38:43;;;;;;;;;;;153.80;2252.80;;;;;;5062461;28;19921;-74
2023/12/08 10:41:13;;;;;;;;;;;154.00;2252.80;;;;;;5113187;27;19919;-75
2023/12/08 10:43:39;;;;;;;;;;;154.20;2252.80;;;;;;5072550;28;19916;-75
2023/12/08 10:46:05;;;;;;;;;;;154.00;2252.80;;;;;;5110944;27;19912;-75
2023/12/08 10:48:32;;;;;;;;;;;153.80;2252.80;;;;;;5079186;28;19912;-78
2023/12/08 10:50:57;;;;;;;;;;;153.70;2252.80;;;;;;5076007;28;19917;-75
2023/12/08 10:53:23;;;;;;;;;;;153.80;2252.80;;;;;;5085081;28;19912;-76
2023/12/08 10:55:55;;;;;;;;;;;153.80;2252.80;;;;;;5075839;28;19917;-75
2023/12/08 10:58:22;;;;;;;;;;;154.00;2252.80;;;;;;5075786;28;19913;-76
2023/12/08 11:00:54;;;;;;;;;;;154.00;2252.80;;;;;;5097606;28;20372;-74
2023/12/08 11:03:20;;;;;;;;;;;154.20;2252.80;;;;;;5073730;28;20365;-75
2023/12/08 11:05:48;;;;;;;;;;;154.20;2252.80;;;;;;5074880;28;19917;-75
2023/12/08 11:08:18;;;;;;;;;;;154.00;2252.80;;;;;;5072672;28;19923;-76
2023/12/08 11:10:49;;;;;;;;;;;153.70;2252.80;;;;;;5073220;28;19916;-75
2023/12/08 11:13:14;;;;;;;;;;;153.80;2252.80;;;;;;5075793;28;20410;-74
2023/12/08 11:15:56;;;;;;;;;;;154.10;2252.80;;;;;;5074784;28;19909;-75
2023/12/08 11:18:23;;;;;;;;;;;154.10;2252.80;;;;;;5076790;28;19920;-75
2023/12/08 11:20:49;;;;;;;;;;;153.90;2252.80;;;;;;5064340;28;19917;-76
2023/12/08 11:23:18;;;;;;;;;;;154.00;2252.80;;;;;;5067762;28;19966;-75
2023/12/08 11:25:48;;;;;;;;;;;154.00;2252.80;;;;;;5071376;28;19981;-74
2023/12/08 11:28:27;;;;;;;;;;;154.20;2252.80;;;;;;5071760;28;20003;-74
2023/12/08 11:30:57;;;;;;;;;;;154.10;2252.80;;;;;;5075842;28;20335;-75
2023/12/08 11:33:32;;;;;;;;;;;154.20;2252.80;;;;;;5103497;27;19962;-76
2023/12/08 11:36:07;;;;;;;;;;;154.00;2252.80;;;;;;5066817;28;19974;-76
2023/12/08 11:38:33;;;;;;;;;;;153.90;2252.80;;;;;;5071326;28;20007;-76
2023/12/08 11:40:59;;;;;;;;;;;154.00;2252.80;;;;;;5078045;28;20011;-75
2023/12/08 11:43:25;;;;;;;;;;;154.00;2252.80;;;;;;5079623;28;19913;-75
2023/12/08 11:45:51;;;;;;;;;;;153.90;2252.80;;;;;;5076706;28;20376;-74
2023/12/08 11:48:18;;;;;;;;;;;154.00;2252.80;;;;;;5069674;28;19913;-74
2023/12/08 11:50:44;;;;;;;;;;;154.20;2252.80;;;;;;5080192;28;19916;-75
2023/12/08 11:53:10;;;;;;;;;;;154.20;2252.80;;;;;;5070279;28;19952;-75
2023/12/08 11:55:38;;;;;;;;;;;154.20;2252.80;;;;;;5075405;28;19955;-75
2023/12/08 11:58:07;;;;;;;;;;;154.30;2252.80;;;;;;5066465;28;19955;-74
2023/12/08 12:00:34;;;;;;;;;;;154.40;2252.80;;;;;;5074216;28;19964;-74
2023/12/08 12:03:00;;;;;;;;;;;179.20;2252.80;;;;;;5080996;28;19912;-76
2023/12/08 12:05:26;;;;;;;;;;;179.20;2252.80;;;;;;5098217;28;19909;-75
2023/12/08 12:07:52;;;;;;;;;;;179.20;2252.80;;;;;;5070424;28;19912;-75
2023/12/08 12:10:21;;;;;;;;;;;154.50;2252.80;;;;;;5075828;28;19958;-74
2023/12/08 12:12:54;;;;;;;;;;;154.40;2252.80;;;;;;5063202;28;19913;-75
2023/12/08 12:15:23;;;;;;;;;;;154.40;2252.80;;;;;;5071867;28;19912;-74
2023/12/08 12:17:49;;;;;;;;;;;154.10;2252.80;;;;;;5077246;28;19951;-75
2023/12/08 12:20:15;;;;;;;;;;;154.00;2252.80;;;;;;5106629;27;19970;-75
2023/12/08 12:22:41;;;;;;;;;;;154.00;2252.80;;;;;;5065554;28;19913;-74
2023/12/08 12:25:10;;;;;;;;;;;153.90;2252.80;;;;;;5108091;27;20283;-75
2023/12/08 12:27:46;;;;;;;;;;;153.70;2252.80;;;;;;5067225;28;19919;-75
2023/12/08 12:30:12;;;;;;;;;;;153.90;2252.80;;;;;;5077698;28;20367;-75
2023/12/08 12:32:38;;;;;;;;;;;154.10;2252.80;;;;;;5076522;28;19912;-74
2023/12/08 12:35:04;;;;;;;;;;;154.30;2252.80;;;;;;5070509;28;20271;-76
2023/12/08 12:37:30;;;;;;;;;;;154.20;2252.80;;;;;;5075358;28;20314;-76
2023/12/08 12:39:56;;;;;;;;;;;154.20;2252.80;;;;;;5070032;28;19973;-74
2023/12/08 12:42:21;;;;;;;;;;;154.20;2252.80;;;;;;5068664;28;20273;-74
2023/12/08 12:44:47;;;;;;;;;;;154.10;2252.80;;;;;;5077826;28;19912;-76
2023/12/08 12:47:13;;;;;;;;;;;154.10;2252.80;;;;;;5071273;28;19924;-77
2023/12/08 12:49:58;;;;;;;;;;;153.90;2252.80;;;;;;5072225;28;20365;-77
2023/12/08 12:52:28;;;;;;;;;;;153.80;2252.80;;;;;;5066226;28;19999;-77
2023/12/08 12:54:54;;;;;;;;;;;153.90;2252.80;;;;;;5073535;28;20280;-77
2023/12/08 12:57:21;;;;;;;;;;;154.10;2252.80;;;;;;5076494;28;20021;-77
2023/12/08 12:59:50;;;;;;;;;;;153.90;2252.80;;;;;;5070929;28;19921;-77
2023/12/08 13:02:16;;;;;;;;;;;154.10;2252.80;;;;;;5106570;28;20010;-75
2023/12/08 13:04:41;;;;;;;;;;;154.20;2252.80;;;;;;5104089;28;19944;-78
2023/12/08 13:07:13;;;;;;;;;;;154.30;2252.80;;;;;;5074107;28;19916;-76
2023/12/08 13:09:40;;;;;;;;;;;154.40;2252.80;;;;;;5073889;28;19909;-74
2023/12/08 13:12:07;;;;;;;;;;;154.20;2252.80;;;;;;5073898;28;19908;-75
2023/12/08 13:14:32;;;;;;;;;;;154.10;2252.80;;;;;;5106470;28;20003;-77
2023/12/08 13:16:58;;;;;;;;;;;154.20;2252.80;;;;;;5077951;28;19947;-77
2023/12/08 13:19:24;;;;;;;;;;;154.30;2252.80;;;;;;5093413;28;20372;-74
2023/12/08 13:21:49;;;;;;;;;;;154.50;2252.80;;;;;;5093808;28;19908;-75
2023/12/08 13:24:15;;;;;;;;;;;154.30;2252.80;;;;;;5075038;28;20003;-77
2023/12/08 13:26:40;;;;;;;;;;;154.20;2252.80;;;;;;5068861;28;19954;-77
2023/12/08 13:29:06;;;;;;;;;;;154.20;2252.80;;;;;;5087185;28;19916;-75
2023/12/08 13:31:32;;;;;;;;;;;154.20;2252.80;;;;;;5093969;28;19916;-77
2023/12/08 13:33:57;;;;;;;;;;;154.20;2252.80;;;;;;5075504;28;19915;-75
2023/12/08 13:36:23;;;;;;;;;;;154.10;2252.80;;;;;;5075669;28;19912;-76